Time;durP1;ratioP1;P1;durP2;ratioP2;P2;SDS_P1;SDS_P2;PMS_P1;PMS_P2;Temp;Humidity;BMP_temperature;BMP_pressure;BME280_temperature;BME280_humidity;BME280_pressure;Samples;Min_cycle;Max_cycle;Signal;HPM_P1;HPM_P2
2023/09/01 04:24:39;;;;;;;;;;;;;;;20.25;57.63;96915.41;4191462;28;10381;-63
2023/09/01 04:26:42;;;;;;;;;;;;;;;20.52;57.02;96928.91;4195874;28;5674;-62
2023/09/01 04:28:45;;;;;;;;;;;;;;;20.72;56.54;96920.22;4194509;28;5721;-62
2023/09/01 04:30:49;;;;;;;;;;;;;;;20.91;56.09;96924.16;4195212;28;5648;-62
2023/09/01 04:32:51;;;;;;;;;;;;;;;21.06;55.46;96915.41;4195844;28;5734;-62
2023/09/01 04:34:54;;;;;;;;;;;;;;;21.16;55.22;96918.16;4190166;28;5810;-62
2023/09/01 04:36:57;;;;;;;;;;;;;;;21.25;54.74;96922.00;4202996;28;5647;-62
2023/09/01 04:39:04;;;;;;;;;;;;;;;21.30;54.61;96922.09;4193247;28;5812;-62
2023/09/01 04:41:08;;;;;;;;;;;;;;;21.36;54.67;96931.81;4180742;28;5789;-62
2023/09/01 04:43:11;;;;;;;;;;;;;;;21.41;54.08;96928.34;4195898;28;7277;-63
2023/09/01 04:45:14;;;;;;;;;;;;;;;21.45;53.80;96929.44;4195806;28;5738;-75
2023/09/01 04:47:17;;;;;;;;;;;;;;;21.47;53.66;96928.13;4197246;28;6300;-65
2023/09/01 04:49:20;;;;;;;;;;;;;;;21.48;53.02;96923.53;4197965;28;5917;-65
2023/09/01 04:51:23;;;;;;;;;;;;;;;21.48;53.66;96927.03;4197987;28;5787;-65
2023/09/01 04:53:24;;;;;;;;;;;;;;;21.50;53.25;96921.41;4197735;28;5664;-65
2023/09/01 04:55:27;;;;;;;;;;;;;;;21.56;53.31;96931.13;4195183;28;5775;-65
2023/09/01 04:57:31;;;;;;;;;;;;;;;21.59;52.90;96935.97;4197380;28;5655;-65
2023/09/01 04:59:33;;;;;;;;;;;;;;;21.61;53.19;96933.84;4196363;28;5717;-66
2023/09/01 05:01:36;;;;;;;;;;;;;;;21.63;52.92;96936.28;4191142;28;5638;-65
2023/09/01 05:03:39;;;;;;;;;;;;;;;21.63;52.97;96933.56;4190891;28;5737;-65
2023/09/01 05:05:42;;;;;;;;;;;;;;;21.64;52.84;96943.28;4192046;28;5102;-65
2023/09/01 05:07:45;;;;;;;;;;;;;;;21.66;52.41;96933.06;4197154;28;5719;-65
2023/09/01 05:09:48;;;;;;;;;;;;;;;21.65;52.64;96939.53;4197380;28;5650;-65
2023/09/01 05:11:50;;;;;;;;;;;;;;;21.63;52.24;96936.28;4197324;28;5644;-65
2023/09/01 05:13:55;;;;;;;;;;;;;;;21.65;52.33;96934.16;4194062;28;5646;-65
2023/09/01 05:15:57;;;;;;;;;;;;;;;21.67;52.43;96942.75;4196936;28;5650;-64
2023/09/01 05:18:00;;;;;;;;;;;;;;;21.66;52.36;96931.19;4197130;28;5643;-65
2023/09/01 05:20:03;;;;;;;;;;;;;;;21.66;52.20;96935.78;4197191;28;5655;-64
2023/09/01 05:22:06;;;;;;;;;;;;;;;21.67;51.85;96937.38;4197044;28;5908;-64
2023/09/01 05:24:09;;;;;;;;;;;;;;;21.66;52.08;96941.97;4189970;28;5670;-65
2023/09/01 05:26:12;;;;;;;;;;;;;;;21.68;51.84;96933.63;4182145;28;5661;-69
2023/09/01 05:28:15;;;;;;;;;;;;;;;21.68;51.80;96934.44;4184590;28;5829;-68
2023/09/01 05:30:19;;;;;;;;;;;;;;;21.60;51.02;96932.22;4184218;28;5667;-68
2023/09/01 05:32:23;;;;;;;;;;;;;;;21.53;51.30;96930.84;4182002;28;5786;-68
2023/09/01 05:34:26;;;;;;;;;;;;;;;21.50;51.15;96927.59;4183149;28;5722;-68
2023/09/01 05:36:29;;;;;;;;;;;;;;;21.47;51.55;96935.38;4179764;28;5644;-68
2023/09/01 05:38:32;;;;;;;;;;;;;;;21.43;51.52;96929.72;4185846;28;5835;-67
2023/09/01 05:40:35;;;;;;;;;;;;;;;21.42;51.44;96932.66;4185851;28;5845;-67
2023/09/01 05:42:37;;;;;;;;;;;;;;;21.41;51.12;96933.72;4179129;28;5805;-67
2023/09/01 05:44:39;;;;;;;;;;;;;;;21.33;51.25;96926.94;4185485;28;5643;-67
2023/09/01 05:46:44;;;;;;;;;;;;;;;21.29;51.55;96938.47;4181171;28;5665;-68
2023/09/01 05:48:47;;;;;;;;;;;;;;;21.23;51.50;96940.28;4179300;28;5647;-68
2023/09/01 05:50:49;;;;;;;;;;;;;;;21.18;52.10;96935.69;4185926;28;5671;-68
2023/09/01 05:52:51;;;;;;;;;;;;;;;21.16;52.37;96943.19;4185414;28;5806;-68
2023/09/01 05:54:54;;;;;;;;;;;;;;;21.12;52.63;96947.44;4185488;28;6016;-68
2023/09/01 05:56:57;;;;;;;;;;;;;;;21.11;52.47;96951.22;4183822;28;5877;-68
2023/09/01 05:59:00;;;;;;;;;;;;;;;21.11;52.82;96942.34;4185197;28;7708;-68
2023/09/01 06:01:03;;;;;;;;;;;;;;;21.18;52.57;96945.63;4181231;28;5658;-68
2023/09/01 06:03:07;;;;;;;;;;;;;;;21.19;52.66;96952.63;4185465;28;5640;-68
2023/09/01 06:05:10;;;;;;;;;;;;;;;21.22;52.57;96960.16;4182453;28;5635;-68
2023/09/01 06:07:13;;;;;;;;;;;;;;;21.23;52.53;96957.22;4185568;28;5648;-68
2023/09/01 06:09:16;;;;;;;;;;;;;;;21.20;52.63;96951.56;4185791;28;5644;-68
2023/09/01 06:11:19;;;;;;;;;;;;;;;21.20;52.70;96957.75;4185569;28;5733;-69
2023/09/01 06:13:22;;;;;;;;;;;;;;;21.23;52.37;96959.91;4185464;28;5962;-68
2023/09/01 06:15:25;;;;;;;;;;;;;;;21.26;52.81;96953.22;4185130;28;5747;-68
2023/09/01 06:17:28;;;;;;;;;;;;;;;21.30;52.25;96967.00;4185621;28;5666;-68
2023/09/01 06:19:47;;;;;;;;;;;;;;;21.29;52.32;96958.09;4182270;28;5702;-68
2023/09/01 06:21:50;;;;;;;;;;;;;;;21.26;52.27;96963.19;4175194;28;5775;-68
2023/09/01 06:23:52;;;;;;;;;;;;;;;21.23;52.74;96961.78;4184901;28;6360;-68
2023/09/01 06:25:55;;;;;;;;;;;;;;;21.27;52.29;96964.78;4185278;28;5786;-68
2023/09/01 06:27:57;;;;;;;;;;;;;;;21.29;52.28;96965.34;4184799;28;5658;-68
2023/09/01 06:30:00;;;;;;;;;;;;;;;21.32;52.34;96962.16;4183211;28;5628;-68
2023/09/01 06:32:04;;;;;;;;;;;;;;;21.40;52.51;96970.53;4182071;28;5832;-67
2023/09/01 06:34:07;;;;;;;;;;;;;;;21.45;52.23;96967.09;4167148;28;5721;-68
2023/09/01 06:36:13;;;;;;;;;;;;;;;21.48;52.12;96971.97;4184406;28;5648;-69
2023/09/01 06:38:16;;;;;;;;;;;;;;;21.47;51.94;96963.06;4185458;28;5083;-68
2023/09/01 06:40:19;;;;;;;;;;;;;;;21.42;52.48;96970.31;4185185;28;5827;-68
2023/09/01 06:42:22;;;;;;;;;;;;;;;21.44;52.54;96971.66;4184953;28;5635;-68
2023/09/01 06:44:24;;;;;;;;;;;;;;;21.50;52.57;96967.13;4184693;28;5719;-68
2023/09/01 06:46:27;;;;;;;;;;;;;;;21.53;52.29;96980.06;4185195;28;5730;-68
2023/09/01 06:48:30;;;;;;;;;;;;;;;21.48;51.87;96967.38;4185176;28;5750;-68
2023/09/01 06:50:36;;;;;;;;;;;;;;;21.48;52.15;96970.06;4184855;28;5643;-68
2023/09/01 06:52:40;;;;;;;;;;;;;;;21.51;52.23;96974.94;4177221;28;5651;-68
2023/09/01 06:54:43;;;;;;;;;;;;;;;21.54;52.53;96970.94;4184074;28;5800;-68
2023/09/01 06:56:46;;;;;;;;;;;;;;;21.53;52.12;96976.56;4185056;28;5647;-68
2023/09/01 06:58:49;;;;;;;;;;;;;;;21.47;52.34;96976.53;4185249;28;5746;-68
2023/09/01 07:00:51;;;;;;;;;;;;;;;21.46;52.35;96974.91;4183251;28;5663;-68
2023/09/01 07:02:54;;;;;;;;;;;;;;;21.48;52.38;96977.34;4184896;28;5759;-68
2023/09/01 07:04:57;;;;;;;;;;;;;;;21.50;52.56;96976.00;4184689;28;5654;-68
2023/09/01 07:07:00;;;;;;;;;;;;;;;21.54;52.16;96976.31;4184723;28;5656;-68
2023/09/01 07:09:04;;;;;;;;;;;;;;;21.60;52.56;96974.47;4176925;28;7027;-69
2023/09/01 07:11:10;;;;;;;;;;;;;;;21.63;51.99;96976.63;4181643;28;5729;-69
2023/09/01 07:13:12;;;;;;;;;;;;;;;21.65;52.20;96983.38;4171430;28;6300;-70
2023/09/01 07:15:15;;;;;;;;;;;;;;;21.69;51.90;96983.66;4184177;28;5753;-69
2023/09/01 07:17:21;;;;;;;;;;;;;;;21.72;51.90;96980.44;4183655;28;5651;-69
2023/09/01 07:19:24;;;;;;;;;;;;;;;21.73;51.81;96980.19;4184867;28;5651;-70
2023/09/01 07:21:27;;;;;;;;;;;;;;;21.74;51.76;96986.38;4184470;28;5996;-71
2023/09/01 07:23:30;;;;;;;;;;;;;;;21.73;52.19;96984.75;4184100;28;5726;-69
2023/09/01 07:25:34;;;;;;;;;;;;;;;21.72;51.63;96989.34;4184237;28;5736;-69
2023/09/01 07:27:37;;;;;;;;;;;;;;;21.75;52.19;96993.41;4184410;28;5698;-69
2023/09/01 07:29:40;;;;;;;;;;;;;;;21.77;51.64;96986.69;4184374;28;5788;-69
2023/09/01 07:31:43;;;;;;;;;;;;;;;21.80;51.99;96990.75;4169486;28;5654;-69
2023/09/01 07:33:45;;;;;;;;;;;;;;;21.82;52.12;96985.91;4184699;28;5082;-69
2023/09/01 07:35:48;;;;;;;;;;;;;;;21.85;52.10;96990.75;4184507;28;5647;-68
2023/09/01 07:37:51;;;;;;;;;;;;;;;21.88;52.05;96986.75;4184615;28;5652;-69
2023/09/01 07:39:54;;;;;;;;;;;;;;;21.85;51.95;96985.38;4181834;28;5653;-69
2023/09/01 07:41:58;;;;;;;;;;;;;;;21.86;51.81;96997.78;4184594;28;5647;-68
2023/09/01 07:44:01;;;;;;;;;;;;;;;21.88;51.88;96992.94;4183846;28;5750;-69
2023/09/01 07:46:04;;;;;;;;;;;;;;;21.92;51.63;96998.63;4184045;28;5631;-68
2023/09/01 07:48:08;;;;;;;;;;;;;;;21.93;51.58;96986.78;4184095;28;5664;-68
2023/09/01 07:50:29;;;;;;;;;;;;;;;21.93;51.80;96992.97;4184567;28;6339;-68
2023/09/01 07:52:35;;;;;;;;;;;;;;;21.95;51.79;96993.50;4184276;28;5650;-68
2023/09/01 07:54:38;;;;;;;;;;;;;;;21.98;51.74;96994.91;4184111;28;5714;-68
2023/09/01 07:56:40;;;;;;;;;;;;;;;21.99;51.77;97005.41;4184266;28;6313;-68
2023/09/01 07:58:45;;;;;;;;;;;;;;;22.03;51.72;97003.78;4183506;28;5739;-68
2023/09/01 08:00:48;;;;;;;;;;;;;;;22.07;51.90;97004.09;4184127;28;5850;-68
2023/09/01 08:02:51;;;;;;;;;;;;;;;22.08;51.92;97003.88;4183538;28;5789;-69
2023/09/01 08:04:55;;;;;;;;;;;;;;;22.11;51.77;97004.41;4183642;28;5779;-68
2023/09/01 08:06:59;;;;;;;;;;;;;;;22.11;51.59;97004.41;4183999;28;5746;-68
2023/09/01 08:09:03;;;;;;;;;;;;;;;22.08;52.02;97009.25;4184058;28;5655;-69
2023/09/01 08:11:05;;;;;;;;;;;;;;;22.12;51.89;97009.53;4183997;28;5742;-69
2023/09/01 08:13:09;;;;;;;;;;;;;;;22.15;51.82;97013.56;4180843;28;5944;-67
2023/09/01 08:15:13;;;;;;;;;;;;;;;22.17;51.81;97008.72;4183030;28;5647;-67
2023/09/01 08:17:16;;;;;;;;;;;;;;;22.17;51.95;97011.44;4183691;28;5652;-68
2023/09/01 08:19:19;;;;;;;;;;;;;;;22.18;52.03;97010.34;4182562;28;5710;-68
2023/09/01 08:21:21;;;;;;;;;;;;;;;22.19;51.79;97004.69;4184125;28;5655;-68
2023/09/01 08:23:24;;;;;;;;;;;;;;;22.21;51.92;97007.97;4183803;28;5735;-68
2023/09/01 08:25:27;;;;;;;;;;;;;;;22.23;52.07;97005.00;4183838;28;5789;-68
2023/09/01 08:27:29;;;;;;;;;;;;;;;22.26;51.80;97012.56;4183943;28;5639;-68
2023/09/01 08:29:32;;;;;;;;;;;;;;;22.28;51.96;97011.22;4183281;28;5782;-68
2023/09/01 08:31:35;;;;;;;;;;;;;;;22.28;51.62;97003.13;4184022;28;5638;-68
2023/09/01 08:33:38;;;;;;;;;;;;;;;22.31;51.71;97004.50;4183630;28;5741;-69
2023/09/01 08:35:41;;;;;;;;;;;;;;;22.30;51.82;97005.56;4168213;28;5668;-69
2023/09/01 08:37:44;;;;;;;;;;;;;;;22.30;51.82;96997.47;4180483;28;5726;-69
2023/09/01 08:39:47;;;;;;;;;;;;;;;22.33;51.80;96999.69;4177862;28;5635;-68
2023/09/01 08:41:53;;;;;;;;;;;;;;;22.35;51.95;97008.28;4183669;28;5647;-69
2023/09/01 08:44:02;;;;;;;;;;;;;;;22.37;52.04;97000.75;4183754;28;5636;-69
2023/09/01 08:46:06;;;;;;;;;;;;;;;22.37;52.15;96996.19;4167176;28;5671;-68
2023/09/01 08:48:14;;;;;;;;;;;;;;;22.38;52.38;96994.28;4167236;28;5674;-69
2023/09/01 08:50:20;;;;;;;;;;;;;;;22.35;52.36;96984.06;4168447;28;5666;-69
2023/09/01 08:52:23;;;;;;;;;;;;;;;22.35;52.52;96987.56;4183412;28;5628;-67
2023/09/01 08:54:28;;;;;;;;;;;;;;;22.36;52.48;96986.47;4178745;28;5418;-69
2023/09/01 08:56:32;;;;;;;;;;;;;;;22.38;52.49;96978.94;4181791;28;5643;-68
2023/09/01 08:58:36;;;;;;;;;;;;;;;22.41;52.52;96987.56;4175370;28;5742;-68
2023/09/01 09:00:39;;;;;;;;;;;;;;;22.41;52.55;96985.69;4177916;28;5063;-68
2023/09/01 09:02:43;;;;;;;;;;;;;;;22.42;52.23;96983.78;4186949;28;5663;-68
2023/09/01 09:05:09;;;;;;;;;;;;;;;22.41;52.50;96977.59;4186462;28;5820;-68
2023/09/01 09:07:14;;;;;;;;;;;;;;;22.42;51.91;96991.88;4186829;28;5668;-68
2023/09/01 09:09:18;;;;;;;;;;;;;;;22.41;52.28;96982.19;4186789;28;5667;-68
2023/09/01 09:11:22;;;;;;;;;;;;;;;22.44;52.52;96989.75;4183276;28;5934;-67
2023/09/01 09:13:25;;;;;;;;;;;;;;;22.46;52.34;96987.59;4186591;28;5750;-67
2023/09/01 09:15:28;;;;;;;;;;;;;;;22.51;51.94;96995.69;4186082;28;5663;-68
2023/09/01 09:17:42;;;;;;;;;;;;;;;22.51;51.59;96995.69;4186570;28;5648;-68
2023/09/01 09:19:53;;;;;;;;;;;;;;;22.49;51.78;96982.47;4168427;28;5677;-68
2023/09/01 09:22:09;;;;;;;;;;;;;;;22.51;51.43;96990.28;4182562;28;5748;-69
2023/09/01 09:24:12;;;;;;;;;;;;;;;22.54;51.30;96979.81;4173741;28;5870;-68
2023/09/01 09:26:26;;;;;;;;;;;;;;;22.54;51.22;96979.00;4183247;28;5737;-69
2023/09/01 09:28:29;;;;;;;;;;;;;;;22.56;51.34;96977.66;4186356;28;5653;-69
2023/09/01 09:30:32;;;;;;;;;;;;;;;22.57;51.18;96984.66;4186124;28;7683;-69
2023/09/01 09:32:35;;;;;;;;;;;;;;;22.56;50.72;96980.38;4186396;28;5638;-69
2023/09/01 09:34:38;;;;;;;;;;;;;;;22.58;50.84;96977.41;4186199;28;5667;-69
2023/09/01 09:36:41;;;;;;;;;;;;;;;22.60;51.08;96983.31;4186425;28;5655;-69
2023/09/01 09:38:46;;;;;;;;;;;;;;;22.63;51.27;96986.28;4186302;28;6300;-68
2023/09/01 09:40:59;;;;;;;;;;;;;;;22.66;51.12;96982.28;4186286;28;5655;-70
2023/09/01 09:43:02;;;;;;;;;;;;;;;22.67;50.82;96984.69;4185914;28;6110;-69
2023/09/01 09:45:07;;;;;;;;;;;;;;;22.70;51.40;96987.94;4185821;28;5654;-69
2023/09/01 09:47:12;;;;;;;;;;;;;;;22.72;51.23;96985.78;4185064;28;5636;-69
2023/09/01 09:49:16;;;;;;;;;;;;;;;22.74;51.10;96986.31;4186243;28;5651;-69
2023/09/01 09:51:21;;;;;;;;;;;;;;;22.76;51.00;96987.66;4186185;28;5636;-69
2023/09/01 09:53:25;;;;;;;;;;;;;;;22.78;50.93;96990.13;4186222;28;5662;-69
2023/09/01 09:55:30;;;;;;;;;;;;;;;22.81;51.02;96987.69;4186108;28;5798;-69
2023/09/01 09:57:34;;;;;;;;;;;;;;;22.82;50.59;96986.63;4185906;28;5883;-68
2023/09/01 09:59:42;;;;;;;;;;;;;;;22.83;50.63;96987.44;4185861;28;5917;-69
2023/09/01 10:01:47;;;;;;;;;;;;;;;22.84;51.04;96984.50;4185873;28;5651;-69
2023/09/01 10:03:51;;;;;;;;;;;;;;;22.88;50.62;96979.41;4186076;28;5647;-69
2023/09/01 10:05:55;;;;;;;;;;;;;;;22.89;50.64;96975.63;4185731;28;5742;-69
2023/09/01 10:07:58;;;;;;;;;;;;;;;22.89;50.69;96979.13;4185732;28;5656;-68
2023/09/01 10:10:02;;;;;;;;;;;;;;;22.90;50.96;96969.16;4185634;28;5722;-69
2023/09/01 10:12:07;;;;;;;;;;;;;;;22.92;50.37;96969.69;4185439;28;5646;-69
2023/09/01 10:14:13;;;;;;;;;;;;;;;22.93;50.51;96966.72;4185391;28;5701;-69
2023/09/01 10:16:17;;;;;;;;;;;;;;;22.95;50.52;96958.38;4185382;28;5734;-69
2023/09/01 10:18:20;;;;;;;;;;;;;;;22.96;50.41;96951.88;4185862;28;5639;-69
2023/09/01 10:20:23;;;;;;;;;;;;;;;22.98;49.95;96962.41;4185388;28;5650;-69
2023/09/01 10:22:26;;;;;;;;;;;;;;;22.97;50.33;96961.59;4185385;28;6333;-69
2023/09/01 10:24:29;;;;;;;;;;;;;;;22.98;50.29;96957.00;4184224;28;5648;-69
2023/09/01 10:26:32;;;;;;;;;;;;;;;23.01;49.84;96959.19;4168788;28;5780;-69
2023/09/01 10:28:52;;;;;;;;;;;;;;;23.03;50.17;96944.34;4176363;28;5964;-69
2023/09/01 10:30:55;;;;;;;;;;;;;;;23.04;50.18;96940.59;4179967;28;5799;-69
2023/09/01 10:33:08;;;;;;;;;;;;;;;23.05;50.24;96947.59;4181145;28;5651;-69
2023/09/01 10:35:11;;;;;;;;;;;;;;;23.07;49.61;96941.94;4179558;28;5646;-70
2023/09/01 10:37:26;;;;;;;;;;;;;;;23.08;49.63;96935.44;4185602;28;5612;-69
2023/09/01 10:39:31;;;;;;;;;;;;;;;23.09;50.11;96928.97;4186333;28;5714;-70
2023/09/01 10:41:46;;;;;;;;;;;;;;;23.09;49.71;96939.75;4185003;28;5650;-69
2023/09/01 10:43:55;;;;;;;;;;;;;;;23.08;49.83;96941.66;4170252;28;5662;-70
2023/09/01 10:46:26;;;;;;;;;;;;;;;23.09;49.36;96937.88;4177935;28;5668;-69
2023/09/01 10:48:51;;;;;;;;;;;;;;;23.13;49.52;96928.19;4168595;28;5653;-69
2023/09/01 10:51:18;;;;;;;;;;;;;;;23.14;49.45;96935.19;4182034;28;5654;-69
2023/09/01 10:53:29;;;;;;;;;;;;;;;23.16;49.01;96932.22;4184673;28;5650;-69
2023/09/01 10:55:34;;;;;;;;;;;;;;;23.20;48.64;96933.28;4185152;28;5662;-69
2023/09/01 10:57:42;;;;;;;;;;;;;;;23.23;49.07;96933.56;4174175;28;5678;-69
2023/09/01 10:59:47;;;;;;;;;;;;;;;23.26;48.52;96926.03;4177814;28;5813;-70
2023/09/01 11:01:50;;;;;;;;;;;;;;;23.31;48.92;96928.69;4160610;28;6372;-69
2023/09/01 11:03:53;;;;;;;;;;;;;;;23.36;49.05;96931.41;4184461;28;5651;-70
2023/09/01 11:05:56;;;;;;;;;;;;;;;23.38;49.22;96926.53;4184784;28;5650;-69
2023/09/01 11:08:14;;;;;;;;;;;;;;;23.41;49.48;96926.81;4185980;28;5995;-71
2023/09/01 11:10:26;;;;;;;;;;;;;;;23.39;48.95;96926.28;4190277;28;5722;-70
2023/09/01 11:12:31;;;;;;;;;;;;;;;23.36;48.77;96920.63;4183117;28;5670;-68
2023/09/01 11:14:36;;;;;;;;;;;;;;;23.39;48.54;96912.78;4183858;28;5647;-69
2023/09/01 11:16:46;;;;;;;;;;;;;;;23.39;48.95;96914.69;4182250;28;5639;-69
2023/09/01 11:19:02;;;;;;;;;;;;;;;23.39;48.83;96912.78;4177254;28;5642;-68
2023/09/01 11:21:09;;;;;;;;;;;;;;;23.40;48.87;96919.78;4183615;28;5758;-69
2023/09/01 11:23:12;;;;;;;;;;;;;;;23.40;48.99;96910.91;4175977;28;5635;-69
2023/09/01 11:25:16;;;;;;;;;;;;;;;23.40;48.43;96910.91;4184184;28;5389;-69
2023/09/01 11:27:19;;;;;;;;;;;;;;;23.40;48.83;96911.69;4179968;28;5755;-69
2023/09/01 11:29:22;;;;;;;;;;;;;;;23.40;48.38;96911.69;4173045;28;5792;-69
2023/09/01 11:31:36;;;;;;;;;;;;;;;23.42;48.56;96908.72;4177284;28;5729;-69
2023/09/01 11:33:42;;;;;;;;;;;;;;;23.42;48.54;96914.94;4176496;28;5808;-69
2023/09/01 11:35:44;;;;;;;;;;;;;;;23.44;47.95;96909.25;4184215;28;5734;-68
2023/09/01 11:37:47;;;;;;;;;;;;;;;23.45;48.19;96909.00;4183239;28;5646;-69
2023/09/01 11:39:50;;;;;;;;;;;;;;;23.45;47.94;96910.91;4184046;28;5742;-69
2023/09/01 11:41:53;;;;;;;;;;;;;;;23.44;47.82;96906.56;4182022;28;5739;-69
2023/09/01 11:43:56;;;;;;;;;;;;;;;23.47;47.34;96900.66;4181119;28;5667;-69
2023/09/01 11:45:59;;;;;;;;;;;;;;;23.48;47.24;96903.06;4183490;28;6312;-69
2023/09/01 11:48:04;;;;;;;;;;;;;;;23.49;47.58;96903.88;4184016;28;5763;-68
2023/09/01 11:50:13;;;;;;;;;;;;;;;23.50;47.47;96906.28;4184393;28;6043;-69
2023/09/01 11:52:15;;;;;;;;;;;;;;;23.51;46.84;96899.00;4184240;28;5647;-69
2023/09/01 11:54:18;;;;;;;;;;;;;;;23.52;47.21;96901.44;4184287;28;5683;-68
2023/09/01 11:56:22;;;;;;;;;;;;;;;23.52;46.92;96896.03;4184376;28;5631;-68
2023/09/01 11:58:26;;;;;;;;;;;;;;;23.51;47.03;96890.91;4184460;28;6202;-68
2023/09/01 12:00:34;;;;;;;;;;;;;;;23.54;46.66;96893.88;4182442;28;5651;-69
2023/09/01 12:02:40;;;;;;;;;;;;;;;23.56;46.52;96888.22;4183592;28;5639;-69
2023/09/01 12:04:46;;;;;;;;;;;;;;;23.58;46.58;96882.53;4177606;28;6329;-69
2023/09/01 12:06:51;;;;;;;;;;;;;;;23.57;46.67;96884.44;4184165;28;5660;-70
2023/09/01 12:08:55;;;;;;;;;;;;;;;23.59;46.13;96887.69;4184180;28;5711;-69
2023/09/01 12:11:04;;;;;;;;;;;;;;;23.61;46.34;96890.91;4183645;28;5642;-69
2023/09/01 12:13:09;;;;;;;;;;;;;;;23.64;46.24;96887.66;4178836;28;5754;-69
2023/09/01 12:15:12;;;;;;;;;;;;;;;23.63;45.87;96888.75;4183959;28;5654;-69
2023/09/01 12:17:17;;;;;;;;;;;;;;;23.64;46.31;96884.16;4181571;28;5714;-70
2023/09/01 12:19:21;;;;;;;;;;;;;;;23.68;45.90;96886.06;4182304;28;5650;-68
2023/09/01 12:21:24;;;;;;;;;;;;;;;23.71;45.37;96882.00;4182541;28;5814;-69
2023/09/01 12:23:30;;;;;;;;;;;;;;;23.70;45.30;96883.06;4183255;28;5664;-68
2023/09/01 12:25:33;;;;;;;;;;;;;;;23.71;45.24;96879.28;4183771;28;5730;-68
2023/09/01 12:27:36;;;;;;;;;;;;;;;23.71;45.26;96877.41;4183461;28;5632;-68
2023/09/01 12:29:39;;;;;;;;;;;;;;;23.72;45.24;96886.31;4183561;28;5782;-68
2023/09/01 12:31:43;;;;;;;;;;;;;;;23.72;44.96;96873.63;4183509;28;5632;-69
2023/09/01 12:33:46;;;;;;;;;;;;;;;23.73;45.15;96888.72;4183799;28;5896;-69
2023/09/01 12:35:48;;;;;;;;;;;;;;;23.73;44.95;96871.72;4185685;28;7727;-67
2023/09/01 12:37:51;;;;;;;;;;;;;;;23.74;45.31;96876.03;4186532;28;5726;-68
2023/09/01 12:39:55;;;;;;;;;;;;;;;23.75;44.63;96869.56;4186907;28;5638;-67
2023/09/01 12:41:58;;;;;;;;;;;;;;;23.77;44.60;96878.97;4186765;28;5648;-67
2023/09/01 12:44:01;;;;;;;;;;;;;;;23.76;44.83;96866.56;4186511;28;5726;-69
2023/09/01 12:46:05;;;;;;;;;;;;;;;23.77;44.65;96872.78;4185335;28;5762;-68
2023/09/01 12:48:09;;;;;;;;;;;;;;;23.77;44.70;96868.19;4186236;28;5758;-69
2023/09/01 12:50:12;;;;;;;;;;;;;;;23.79;44.35;96876.84;4186669;28;5640;-69
2023/09/01 12:52:15;;;;;;;;;;;;;;;23.79;44.73;96871.44;4186351;28;5651;-69
2023/09/01 12:54:19;;;;;;;;;;;;;;;23.81;44.18;96868.47;4186760;28;5648;-68
2023/09/01 12:56:24;;;;;;;;;;;;;;;23.83;44.41;96870.88;4187064;28;5664;-69
2023/09/01 12:58:28;;;;;;;;;;;;;;;23.83;44.06;96863.59;4186566;28;5662;-69
2023/09/01 13:00:31;;;;;;;;;;;;;;;23.84;44.73;96856.31;4185960;28;5737;-68
2023/09/01 13:02:33;;;;;;;;;;;;;;;23.86;44.09;96854.13;4185593;28;5660;-70
2023/09/01 13:04:39;;;;;;;;;;;;;;;23.88;44.30;96862.75;4178417;28;5700;-70
2023/09/01 13:06:42;;;;;;;;;;;;;;;23.89;44.33;96856.28;4186295;28;5863;-69
2023/09/01 13:08:45;;;;;;;;;;;;;;;23.92;44.44;96855.72;4185652;28;5781;-70
2023/09/01 13:10:47;;;;;;;;;;;;;;;23.94;43.91;96856.25;4186589;28;5707;-69
2023/09/01 13:12:51;;;;;;;;;;;;;;;23.99;44.58;96843.53;4186034;28;5804;-69
2023/09/01 13:14:57;;;;;;;;;;;;;;;24.05;44.78;96850.53;4186107;28;5797;-67
2023/09/01 13:17:00;;;;;;;;;;;;;;;24.06;44.20;96854.84;4185567;28;6322;-68
2023/09/01 13:19:03;;;;;;;;;;;;;;;24.05;44.48;96855.13;4185381;28;5647;-68
2023/09/01 13:21:06;;;;;;;;;;;;;;;24.04;44.27;96848.13;4181396;28;5786;-70
2023/09/01 13:23:09;;;;;;;;;;;;;;;24.03;44.37;96858.09;4170344;28;5634;-71
2023/09/01 13:25:12;;;;;;;;;;;;;;;24.04;44.49;96856.22;4182272;28;5674;-70
2023/09/01 13:27:15;;;;;;;;;;;;;;;24.04;44.15;96848.91;4184874;28;5636;-70
2023/09/01 13:29:19;;;;;;;;;;;;;;;24.03;44.53;96849.19;4184635;28;5835;-69
2023/09/01 13:31:22;;;;;;;;;;;;;;;24.03;44.05;96843.81;4178987;28;5665;-73
2023/09/01 13:33:24;;;;;;;;;;;;;;;24.03;44.21;96843.81;4172182;28;5648;-74
2023/09/01 13:35:27;;;;;;;;;;;;;;;24.03;44.46;96839.22;4184046;28;5757;-75
2023/09/01 13:37:30;;;;;;;;;;;;;;;24.04;44.13;96840.00;4183900;28;5876;-75
2023/09/01 13:39:33;;;;;;;;;;;;;;;24.03;44.05;96830.31;4185154;28;5639;-76
2023/09/01 13:41:36;;;;;;;;;;;;;;;24.08;44.27;96835.66;4185478;28;5766;-73
2023/09/01 13:43:39;;;;;;;;;;;;;;;24.15;44.57;96841.56;4166124;28;5766;-72
2023/09/01 13:45:42;;;;;;;;;;;;;;;24.14;44.19;96837.25;4188054;28;5654;-73
2023/09/01 13:47:46;;;;;;;;;;;;;;;24.15;44.75;96833.47;4182222;28;5669;-75
2023/09/01 13:49:50;;;;;;;;;;;;;;;24.13;44.59;96832.16;4184910;28;5079;-74
2023/09/01 13:51:53;;;;;;;;;;;;;;;24.12;44.43;96831.31;4186004;28;5632;-74
2023/09/01 13:53:57;;;;;;;;;;;;;;;24.13;44.38;96822.16;4186067;28;5644;-76
2023/09/01 13:56:00;;;;;;;;;;;;;;;24.12;44.61;96825.91;4185765;28;5808;-74
2023/09/01 13:58:03;;;;;;;;;;;;;;;24.13;44.43;96824.84;4184055;28;5647;-72
2023/09/01 14:00:08;;;;;;;;;;;;;;;24.13;44.87;96822.16;4185368;28;5646;-70
2023/09/01 14:02:13;;;;;;;;;;;;;;;24.11;44.52;96819.69;4164352;28;5756;-73
2023/09/01 14:04:15;;;;;;;;;;;;;;;24.13;44.33;96816.75;4173144;28;6420;-74
2023/09/01 14:06:17;;;;;;;;;;;;;;;24.14;44.43;96821.06;4174894;28;5907;-66
2023/09/01 14:08:20;;;;;;;;;;;;;;;24.16;44.37;96813.47;4174767;28;5811;-68
2023/09/01 14:10:23;;;;;;;;;;;;;;;24.17;44.01;96809.69;4180164;28;5776;-70
2023/09/01 14:12:26;;;;;;;;;;;;;;;24.20;44.33;96808.31;4175624;28;5771;-73
2023/09/01 14:14:29;;;;;;;;;;;;;;;24.21;43.81;96808.03;4175559;28;5788;-74
2023/09/01 14:16:32;;;;;;;;;;;;;;;24.23;44.10;96808.56;4177180;28;5228;-76
2023/09/01 14:18:36;;;;;;;;;;;;;;;24.25;43.54;96809.09;4178057;28;6462;-71
2023/09/01 14:20:39;;;;;;;;;;;;;;;24.27;43.84;96809.63;4177118;28;5729;-75
2023/09/01 14:22:41;;;;;;;;;;;;;;;24.30;43.40;96795.59;4176410;28;7819;-72
2023/09/01 14:24:44;;;;;;;;;;;;;;;24.31;43.83;96799.91;4179678;28;5642;-72
2023/09/01 14:26:50;;;;;;;;;;;;;;;24.30;43.97;96806.38;4173787;28;5784;-71
2023/09/01 14:28:54;;;;;;;;;;;;;;;24.29;43.82;96799.34;4178144;28;5972;-75
2023/09/01 14:30:59;;;;;;;;;;;;;;;24.30;43.77;96794.75;4173317;28;5651;-72
2023/09/01 14:33:03;;;;;;;;;;;;;;;24.29;43.78;96793.94;4175448;28;5861;-74
2023/09/01 14:35:19;;;;;;;;;;;;;;;24.29;43.58;96793.94;4181724;28;6542;-70
2023/09/01 14:37:22;;;;;;;;;;;;;;;24.31;43.96;96789.09;4178219;28;5832;-73
2023/09/01 14:39:25;;;;;;;;;;;;;;;24.32;43.62;96795.31;4177733;28;6478;-76
2023/09/01 14:41:28;;;;;;;;;;;;;;;24.33;43.80;96794.22;4179076;28;5666;-70
2023/09/01 14:43:32;;;;;;;;;;;;;;;24.33;43.79;96791.50;4177516;28;5642;-72
2023/09/01 14:45:37;;;;;;;;;;;;;;;24.33;43.60;96788.81;4184188;28;5638;-73
2023/09/01 14:47:39;;;;;;;;;;;;;;;24.36;43.71;96794.47;4173702;28;5809;-69
2023/09/01 14:49:41;;;;;;;;;;;;;;;24.37;43.25;96789.88;4179023;28;5647;-70
2023/09/01 14:51:45;;;;;;;;;;;;;;;24.35;43.28;96792.03;4178879;28;5762;-70
2023/09/01 14:53:47;;;;;;;;;;;;;;;24.35;43.43;96790.16;4180454;28;5654;-71
2023/09/01 14:55:50;;;;;;;;;;;;;;;24.35;43.57;96792.03;4184496;28;5723;-71
2023/09/01 14:57:53;;;;;;;;;;;;;;;24.35;43.23;96795.56;4172991;28;6492;-73
2023/09/01 14:59:57;;;;;;;;;;;;;;;24.36;43.69;96786.38;4176564;28;5722;-73
2023/09/01 15:02:04;;;;;;;;;;;;;;;24.35;43.38;96784.75;4179864;28;5727;-72
2023/09/01 15:04:07;;;;;;;;;;;;;;;24.36;43.33;96780.97;4175025;28;5796;-73
2023/09/01 15:06:10;;;;;;;;;;;;;;;24.36;43.29;96791.78;4175280;28;5712;-68
2023/09/01 15:08:13;;;;;;;;;;;;;;;24.37;43.44;96787.19;4176829;28;5654;-68
2023/09/01 15:10:16;;;;;;;;;;;;;;;24.37;43.51;96790.69;4176305;28;5824;-68
2023/09/01 15:12:19;;;;;;;;;;;;;;;24.37;43.71;96790.69;4176697;28;5868;-72
2023/09/01 15:14:22;;;;;;;;;;;;;;;24.38;43.25;96784.19;4179419;28;5799;-69
2023/09/01 15:16:25;;;;;;;;;;;;;;;24.39;43.65;96782.28;4179596;28;5726;-69
2023/09/01 15:18:28;;;;;;;;;;;;;;;24.40;43.74;96789.31;4182548;28;5738;-71
2023/09/01 15:20:30;;;;;;;;;;;;;;;24.39;43.56;96787.69;4176695;28;5646;-71